createdAt,value
2023-08-12T00:00:13.119Z,22.30
2023-08-12T00:03:15.930Z,22.30
2023-08-12T00:06:17.847Z,22.30
2023-08-12T00:09:19.721Z,22.30
2023-08-12T00:12:21.602Z,22.30
2023-08-12T00:15:23.729Z,22.20
2023-08-12T00:18:25.889Z,22.30
2023-08-12T00:21:27.782Z,22.20
2023-08-12T00:24:29.594Z,22.30
2023-08-12T00:27:31.574Z,22.20
2023-08-12T00:30:33.855Z,22.20
2023-08-12T00:33:35.841Z,22.30
2023-08-12T00:36:38.308Z,22.20
2023-08-12T00:39:40.192Z,22.20
2023-08-12T00:42:42.105Z,22.20
2023-08-12T00:45:45.102Z,22.20
2023-08-12T00:48:47.068Z,22.20
2023-08-12T00:51:50.281Z,22.20
2023-08-12T00:54:52.146Z,22.20
2023-08-12T00:57:54.526Z,22.20
2023-08-12T01:00:56.803Z,22.10
2023-08-12T01:03:59.122Z,22.10
2023-08-12T01:07:01.372Z,22.10
2023-08-12T01:10:04.759Z,22.10
2023-08-12T01:13:30.684Z,22.00
2023-08-12T01:16:37.390Z,22.00
2023-08-12T01:19:40.839Z,22.00
2023-08-12T01:22:45.068Z,22.10
2023-08-12T01:25:46.950Z,22.10
2023-08-12T01:28:49.031Z,22.00
2023-08-12T01:31:59.633Z,22.00
2023-08-12T01:35:08.327Z,22.00
2023-08-12T01:38:11.361Z,22.00
2023-08-12T01:41:15.334Z,21.80
2023-08-12T01:44:17.825Z,21.80
2023-08-12T01:47:19.658Z,21.70
2023-08-12T01:50:22.812Z,21.60
2023-08-12T01:53:24.653Z,21.70
2023-08-12T01:56:26.639Z,21.70
2023-08-12T01:59:29.341Z,21.80
2023-08-12T02:02:34.321Z,21.80
2023-08-12T02:05:38.258Z,21.80
2023-08-12T02:08:40.280Z,21.80
2023-08-12T02:11:42.501Z,21.80
2023-08-12T02:14:44.641Z,21.80
2023-08-12T02:17:46.664Z,21.70
2023-08-12T02:20:49.571Z,21.70
2023-08-12T02:23:51.617Z,21.80
2023-08-12T02:26:53.844Z,21.80
2023-08-12T02:29:55.721Z,21.90
2023-08-12T02:32:57.636Z,21.80
2023-08-12T02:35:59.737Z,21.80
2023-08-12T02:39:02.194Z,21.80
2023-08-12T02:42:04.146Z,21.80
2023-08-12T02:45:06.726Z,21.80
2023-08-12T02:48:09.343Z,21.80
2023-08-12T02:51:11.321Z,21.70
2023-08-12T02:54:13.210Z,21.60
2023-08-12T02:57:15.150Z,21.60
2023-08-12T03:00:17.363Z,21.60
2023-08-12T03:03:19.570Z,21.60
2023-08-12T03:06:22.027Z,21.50
2023-08-12T03:09:23.962Z,21.60
2023-08-12T03:12:25.775Z,21.60
2023-08-12T03:15:27.787Z,21.60
2023-08-12T03:18:29.792Z,21.60
2023-08-12T03:21:31.631Z,21.60
2023-08-12T03:24:33.496Z,21.60
2023-08-12T03:27:38.466Z,21.70
2023-08-12T03:30:40.290Z,21.70
2023-08-12T03:33:42.182Z,21.70
2023-08-12T03:36:44.180Z,21.70
2023-08-12T03:39:46.222Z,21.70
2023-08-12T03:42:48.306Z,21.70
2023-08-12T03:45:50.210Z,21.70
2023-08-12T03:48:52.110Z,21.70
2023-08-12T03:51:54.213Z,21.80
2023-08-12T03:54:56.008Z,21.80
2023-08-12T03:57:57.895Z,21.80
2023-08-12T04:01:00.921Z,21.80
2023-08-12T04:04:15.171Z,21.80
2023-08-12T04:07:17.292Z,21.80
2023-08-12T04:10:19.418Z,21.70
2023-08-12T04:13:21.334Z,21.70
2023-08-12T04:16:23.375Z,21.70
2023-08-12T04:19:25.219Z,21.70
2023-08-12T04:22:27.429Z,21.70
2023-08-12T04:25:29.266Z,21.70
2023-08-12T04:28:31.137Z,21.60
2023-08-12T04:31:32.996Z,21.60
2023-08-12T04:34:35.413Z,21.60
2023-08-12T04:37:37.804Z,21.60
2023-08-12T04:40:41.360Z,21.60
2023-08-12T04:43:43.447Z,21.50
2023-08-12T04:46:45.254Z,21.50
2023-08-12T04:49:47.081Z,21.50
2023-08-12T04:52:48.911Z,21.50
2023-08-12T04:55:55.292Z,21.40
2023-08-12T04:58:58.133Z,21.40
2023-08-12T05:02:17.965Z,21.40
2023-08-12T05:05:19.988Z,21.30
2023-08-12T05:08:22.012Z,21.20
2023-08-12T05:11:23.870Z,21.20
2023-08-12T05:14:25.642Z,21.00
2023-08-12T05:17:27.462Z,21.00
2023-08-12T05:20:29.635Z,21.00
2023-08-12T05:23:31.501Z,21.00
2023-08-12T05:26:34.968Z,21.00
2023-08-12T05:29:37.000Z,21.00
2023-08-12T05:32:38.836Z,21.00
2023-08-12T05:35:40.663Z,21.00
2023-08-12T05:38:42.499Z,21.00
2023-08-12T05:41:44.390Z,21.00
2023-08-12T05:44:46.527Z,21.00
2023-08-12T05:47:48.484Z,21.00
2023-08-12T05:50:50.263Z,21.00
2023-08-12T05:53:52.224Z,21.00
2023-08-12T05:56:55.218Z,21.00
2023-08-12T05:59:57.160Z,21.00
2023-08-12T06:02:59.114Z,21.00
2023-08-12T06:06:04.690Z,21.00
2023-08-12T06:09:06.722Z,20.90
2023-08-12T06:12:08.807Z,21.00
2023-08-12T06:15:11.066Z,21.00
2023-08-12T06:18:12.945Z,21.00
2023-08-12T06:21:14.984Z,21.00
2023-08-12T06:24:16.978Z,21.00
2023-08-12T06:27:20.766Z,21.00
2023-08-12T06:30:22.678Z,20.90
2023-08-12T06:33:24.760Z,20.90
2023-08-12T06:36:26.565Z,21.00
2023-08-12T06:39:28.653Z,21.00
2023-08-12T06:42:31.049Z,21.00
2023-08-12T06:45:33.379Z,21.00
2023-08-12T06:48:35.263Z,21.00
2023-08-12T06:51:37.207Z,21.00
2023-08-12T06:54:39.143Z,21.00
2023-08-12T06:57:41.524Z,21.00
2023-08-12T07:00:43.604Z,21.00
2023-08-12T07:03:45.384Z,21.00
2023-08-12T07:06:47.449Z,21.00
2023-08-12T07:09:49.472Z,21.10
2023-08-12T07:12:51.348Z,21.10
2023-08-12T07:15:53.502Z,21.10
2023-08-12T07:18:55.637Z,21.10
2023-08-12T07:21:57.602Z,21.10
2023-08-12T07:25:01.257Z,21.00
2023-08-12T07:28:03.208Z,21.00
2023-08-12T07:31:05.202Z,21.00
2023-08-12T07:34:07.349Z,21.00
2023-08-12T07:37:09.445Z,21.10
2023-08-12T07:40:11.750Z,21.10
2023-08-12T07:43:13.809Z,21.10
2023-08-12T07:46:15.784Z,21.10
2023-08-12T07:49:17.973Z,21.10
2023-08-12T07:52:19.838Z,21.10
2023-08-12T07:55:22.026Z,21.00
2023-08-12T07:58:25.228Z,21.10
2023-08-12T08:01:27.180Z,21.10
2023-08-12T08:04:29.181Z,21.10
2023-08-12T08:07:33.806Z,21.20
2023-08-12T08:10:35.652Z,21.20
2023-08-12T08:13:37.921Z,21.20
2023-08-12T08:16:41.585Z,21.20
2023-08-12T08:19:44.069Z,21.30
2023-08-12T08:22:48.526Z,21.30
2023-08-12T08:26:09.217Z,21.30
2023-08-12T08:29:14.636Z,21.40
2023-08-12T08:32:31.400Z,21.40
2023-08-12T08:35:33.402Z,21.50
2023-08-12T08:38:35.364Z,21.50
2023-08-12T08:41:41.246Z,21.60
2023-08-12T08:44:43.702Z,21.60
2023-08-12T08:47:49.450Z,21.60
2023-08-12T08:50:53.136Z,21.60
2023-08-12T08:53:58.502Z,21.60
2023-08-12T08:57:09.922Z,21.50
2023-08-12T09:00:18.367Z,21.50
2023-08-12T09:03:22.748Z,21.50
2023-08-12T09:06:26.951Z,21.50
2023-08-12T09:09:29.113Z,21.60
2023-08-12T09:12:32.728Z,21.60
2023-08-12T09:15:35.284Z,21.70
2023-08-12T09:18:41.203Z,21.70
2023-08-12T09:21:44.919Z,21.70
2023-08-12T09:24:46.878Z,21.70
2023-08-12T09:28:00.825Z,21.70
2023-08-12T09:31:08.780Z,21.70
2023-08-12T09:34:13.619Z,21.70
2023-08-12T09:37:17.436Z,21.70
2023-08-12T09:40:19.725Z,21.60
2023-08-12T09:43:25.594Z,21.70
2023-08-12T09:46:28.892Z,21.70
2023-08-12T09:49:31.541Z,21.70
2023-08-12T09:56:08.979Z,21.60
2023-08-12T09:59:12.738Z,21.60
2023-08-12T10:02:19.889Z,21.70
2023-08-12T10:05:33.596Z,21.70
2023-08-12T10:08:36.301Z,21.70
2023-08-12T10:11:38.984Z,21.70
2023-08-12T10:14:41.364Z,21.70
2023-08-12T10:17:47.251Z,21.70
2023-08-12T10:20:59.024Z,21.80
2023-08-12T10:24:17.378Z,21.80
2023-08-12T10:27:26.845Z,21.80
2023-08-12T10:30:36.315Z,21.80
2023-08-12T10:33:39.863Z,21.70
2023-08-12T10:37:01.448Z,21.70
2023-08-12T10:40:34.772Z,21.60
2023-08-12T10:44:16.951Z,21.60
2023-08-12T10:47:19.112Z,21.50
2023-08-12T10:50:27.042Z,21.50
2023-08-12T10:53:40.985Z,21.50
2023-08-12T10:57:05.309Z,21.50
2023-08-12T11:00:12.213Z,21.50
2023-08-12T11:03:14.747Z,21.50
2023-08-12T11:06:17.758Z,21.50
2023-08-12T11:09:20.097Z,21.50
2023-08-12T11:12:44.152Z,21.40
2023-08-12T11:15:51.230Z,21.40
2023-08-12T11:19:00.339Z,21.30
2023-08-12T11:22:15.505Z,21.30
2023-08-12T11:25:20.477Z,21.30
2023-08-12T11:28:22.726Z,21.30
2023-08-12T11:31:25.313Z,21.30
2023-08-12T11:34:27.456Z,21.40
2023-08-12T11:37:41.447Z,21.40
2023-08-12T11:40:51.557Z,21.40
2023-08-12T11:43:53.593Z,21.40
2023-08-12T11:46:56.175Z,21.30
2023-08-12T11:50:05.153Z,21.30
2023-08-12T11:53:16.057Z,21.40
2023-08-12T11:59:34.356Z,21.50
2023-08-12T12:03:01.187Z,21.50
2023-08-12T12:06:03.809Z,21.60
2023-08-12T12:09:16.342Z,21.70
2023-08-12T12:12:18.588Z,21.90
2023-08-12T12:15:20.440Z,22.00
2023-08-12T12:18:22.296Z,22.00
2023-08-12T12:21:24.348Z,22.00
2023-08-12T12:24:31.307Z,21.90
2023-08-12T12:27:34.374Z,21.90
2023-08-12T12:30:38.028Z,22.00
2023-08-12T12:33:45.757Z,22.00
2023-08-12T12:36:55.521Z,22.00
2023-08-12T12:39:57.554Z,22.10
2023-08-12T12:43:00.202Z,22.20
2023-08-12T12:46:02.272Z,22.20
2023-08-12T12:49:04.310Z,22.20
2023-08-12T12:52:06.450Z,22.30
2023-08-12T12:55:09.370Z,22.30
2023-08-12T12:58:12.689Z,22.40
2023-08-12T13:01:14.568Z,22.50
2023-08-12T13:04:16.451Z,22.60
2023-08-12T13:07:18.485Z,22.60
2023-08-12T13:10:20.607Z,22.60
2023-08-12T13:13:22.486Z,22.60
2023-08-12T13:16:24.334Z,22.70
2023-08-12T13:19:28.194Z,22.80
2023-08-12T13:22:30.267Z,22.90
2023-08-12T13:25:36.996Z,23.00
2023-08-12T13:28:52.801Z,23.00
2023-08-12T13:32:07.040Z,23.00
2023-08-12T13:35:09.148Z,23.10
2023-08-12T13:38:11.034Z,23.00
2023-08-12T13:41:13.031Z,23.10
2023-08-12T13:44:14.900Z,23.10
2023-08-12T13:47:16.871Z,23.10
2023-08-12T13:50:19.442Z,23.00
2023-08-12T13:53:21.546Z,23.00
2023-08-12T13:56:23.837Z,23.00
2023-08-12T13:59:26.374Z,23.10
2023-08-12T14:02:29.867Z,23.10
2023-08-12T14:05:31.756Z,23.20
2023-08-12T14:11:49.514Z,23.30
2023-08-12T14:14:51.555Z,23.30
2023-08-12T14:17:53.707Z,23.20
2023-08-12T14:21:01.822Z,23.20
2023-08-12T14:24:03.919Z,23.30
2023-08-12T14:27:06.206Z,23.30
2023-08-12T14:30:08.835Z,23.30
2023-08-12T14:33:10.846Z,23.40
2023-08-12T14:36:12.981Z,23.40
2023-08-12T14:39:19.249Z,23.40
2023-08-12T14:42:21.101Z,23.40
2023-08-12T14:45:22.951Z,23.40
2023-08-12T14:48:24.790Z,23.40
2023-08-12T14:51:27.001Z,23.30
2023-08-12T14:54:28.949Z,23.40
2023-08-12T14:57:30.982Z,23.40
2023-08-12T15:00:47.138Z,23.40
2023-08-12T15:03:49.133Z,23.40
2023-08-12T15:06:51.065Z,23.50
2023-08-12T15:09:55.897Z,23.50
2023-08-12T15:12:57.868Z,23.50
2023-08-12T15:16:00.198Z,23.50
2023-08-12T15:19:03.002Z,23.50
2023-08-12T15:22:04.898Z,23.60
2023-08-12T15:25:07.292Z,23.60
2023-08-12T15:28:09.822Z,23.60
2023-08-12T15:31:15.844Z,23.60
2023-08-12T15:34:17.973Z,23.60
2023-08-12T15:37:20.107Z,23.60
2023-08-12T15:40:23.204Z,23.60
2023-08-12T15:43:25.259Z,23.50
2023-08-12T15:46:27.139Z,23.50
2023-08-12T15:49:34.107Z,23.50
2023-08-12T15:55:51.809Z,23.60
2023-08-12T15:58:53.724Z,23.60
2023-08-12T16:01:55.701Z,23.60
2023-08-12T16:04:57.738Z,23.60
2023-08-12T16:07:59.653Z,23.50
2023-08-12T16:11:01.533Z,23.60
2023-08-12T16:14:03.553Z,23.60
2023-08-12T16:17:14.934Z,23.60
2023-08-12T16:20:24.883Z,23.50
2023-08-12T16:23:27.269Z,23.60
2023-08-12T16:26:29.197Z,23.60
2023-08-12T16:33:09.455Z,23.60
2023-08-12T16:36:09.728Z,23.60
2023-08-12T16:39:17.854Z,23.60
2023-08-12T16:42:29.084Z,23.60
2023-08-12T16:48:46.644Z,23.60
2023-08-12T16:51:54.782Z,23.50
2023-08-12T16:55:05.674Z,23.50
2023-08-12T16:58:16.707Z,23.40
2023-08-12T17:01:32.254Z,23.50
2023-08-12T17:04:51.561Z,23.40
2023-08-12T17:07:53.492Z,23.40
2023-08-12T17:10:55.400Z,23.30
2023-08-12T17:13:58.273Z,23.30
2023-08-12T17:17:00.382Z,23.30
2023-08-12T17:20:02.355Z,23.20
2023-08-12T17:23:04.533Z,23.30
2023-08-12T17:26:06.816Z,23.40
2023-08-12T17:29:11.118Z,23.30
2023-08-12T17:32:13.348Z,23.30
2023-08-12T17:35:15.521Z,23.40
2023-08-12T17:38:17.380Z,23.40
2023-08-12T17:41:19.222Z,23.30
2023-08-12T17:44:21.181Z,23.30
2023-08-12T17:47:23.128Z,23.30
2023-08-12T17:50:26.028Z,23.30
2023-08-12T17:53:27.878Z,23.20
2023-08-12T17:56:29.722Z,23.10
2023-08-12T17:59:31.784Z,23.10
2023-08-12T18:02:49.222Z,23.00
2023-08-12T18:05:51.369Z,22.90
2023-08-12T18:08:54.212Z,22.90
2023-08-12T18:11:56.082Z,22.90
2023-08-12T18:15:00.562Z,22.80
2023-08-12T18:18:14.716Z,22.70
2023-08-12T18:21:16.585Z,22.70
2023-08-12T18:24:41.022Z,22.60
2023-08-12T18:27:42.970Z,22.50
2023-08-12T18:30:44.846Z,22.50
2023-08-12T18:33:46.832Z,22.40
2023-08-12T18:36:48.837Z,22.40
2023-08-12T18:39:50.763Z,22.30
2023-08-12T18:42:52.671Z,22.30
2023-08-12T18:45:54.946Z,22.20
2023-08-12T18:48:57.476Z,22.20
2023-08-12T18:51:59.415Z,22.10
2023-08-12T18:55:01.587Z,22.00
2023-08-12T18:58:03.870Z,22.00
2023-08-12T19:01:05.935Z,22.10
2023-08-12T19:04:07.767Z,22.00
2023-08-12T19:07:09.752Z,21.80
2023-08-12T19:10:11.643Z,21.80
2023-08-12T19:13:13.849Z,21.70
2023-08-12T19:16:15.851Z,21.60
2023-08-12T19:19:17.792Z,21.50
2023-08-12T19:22:20.486Z,21.40
2023-08-12T19:25:22.543Z,21.30
2023-08-12T19:28:24.458Z,21.30
2023-08-12T19:31:27.136Z,21.30
2023-08-12T19:34:30.941Z,21.20
2023-08-12T19:37:34.032Z,21.10
2023-08-12T19:40:36.016Z,21.00
2023-08-12T19:43:38.028Z,21.00
2023-08-12T19:46:40.777Z,20.80
2023-08-12T19:49:42.735Z,20.80
2023-08-12T19:52:44.699Z,20.80
2023-08-12T19:55:46.644Z,20.70
2023-08-12T19:58:48.448Z,20.70
2023-08-12T20:01:50.586Z,20.60
2023-08-12T20:04:52.844Z,20.60
2023-08-12T20:07:54.687Z,20.60
2023-08-12T20:10:56.513Z,20.60
2023-08-12T20:13:58.641Z,20.50
2023-08-12T20:17:00.845Z,20.40
2023-08-12T20:20:06.460Z,20.40
2023-08-12T20:23:08.421Z,20.30
2023-08-12T20:26:11.113Z,20.40
2023-08-12T20:29:13.425Z,20.40
2023-08-12T20:32:15.808Z,20.40
2023-08-12T20:35:18.062Z,20.40
2023-08-12T20:38:19.999Z,20.30
2023-08-12T20:41:22.628Z,20.20
2023-08-12T20:44:24.685Z,20.10
2023-08-12T20:47:26.843Z,20.00
2023-08-12T20:50:28.762Z,20.00
2023-08-12T20:53:33.486Z,19.90
2023-08-12T20:56:35.381Z,19.90
2023-08-12T20:59:37.280Z,19.90
2023-08-12T21:02:46.514Z,20.00
2023-08-12T21:05:52.226Z,20.00
2023-08-12T21:08:54.079Z,19.90
2023-08-12T21:11:56.092Z,19.90
2023-08-12T21:14:58.037Z,20.00
2023-08-12T21:18:00.787Z,20.00
2023-08-12T21:21:02.889Z,20.00
2023-08-12T21:24:05.060Z,19.90
2023-08-12T21:27:07.023Z,19.90
2023-08-12T21:30:09.406Z,19.90
2023-08-12T21:33:11.544Z,19.70
2023-08-12T21:36:13.669Z,19.70
2023-08-12T21:39:15.851Z,19.90
2023-08-12T21:42:17.776Z,19.90
2023-08-12T21:45:19.966Z,19.90
2023-08-12T21:48:22.030Z,19.90
2023-08-12T21:51:24.094Z,19.90
2023-08-12T21:54:26.043Z,19.90
2023-08-12T21:57:27.925Z,19.90
2023-08-12T22:00:30.026Z,19.90
2023-08-12T22:03:31.894Z,19.90
2023-08-12T22:06:33.860Z,19.80
2023-08-12T22:09:35.812Z,19.80
2023-08-12T22:12:37.700Z,19.90
2023-08-12T22:15:39.784Z,19.90
2023-08-12T22:18:42.944Z,19.90
2023-08-12T22:21:45.033Z,19.90
2023-08-12T22:24:47.350Z,19.80
2023-08-12T22:27:49.197Z,19.80
2023-08-12T22:30:53.381Z,19.80
2023-08-12T22:33:55.360Z,19.80
2023-08-12T22:36:57.890Z,19.70
2023-08-12T22:40:00.112Z,19.70
2023-08-12T22:43:02.031Z,19.70
2023-08-12T22:46:03.952Z,19.70
2023-08-12T22:49:05.794Z,19.60
2023-08-12T22:52:07.915Z,19.70
2023-08-12T22:55:10.160Z,19.60
2023-08-12T22:58:12.033Z,19.60
2023-08-12T23:01:14.069Z,19.60
2023-08-12T23:04:16.110Z,19.60
2023-08-12T23:07:18.230Z,19.70
2023-08-12T23:10:20.174Z,19.60
2023-08-12T23:13:23.729Z,19.50
2023-08-12T23:16:26.377Z,19.50
2023-08-12T23:19:28.234Z,19.50
2023-08-12T23:22:30.249Z,19.60
2023-08-12T23:25:32.409Z,19.60
2023-08-12T23:28:34.369Z,19.50
2023-08-12T23:31:36.379Z,19.50
2023-08-12T23:34:38.425Z,19.40
2023-08-12T23:37:41.247Z,19.40
2023-08-12T23:40:43.450Z,19.30
2023-08-12T23:43:45.514Z,19.30
2023-08-12T23:46:47.385Z,19.40
2023-08-12T23:49:50.115Z,19.30
2023-08-12T23:52:52.600Z,19.30
2023-08-12T23:55:54.666Z,19.30
2023-08-12T23:58:56.565Z,19.30
